createdAt,value
2023-03-10T00:01:22.693Z,97208.95
2023-03-10T00:03:51.658Z,97209.48
2023-03-10T00:06:22.267Z,97209.31
2023-03-10T00:08:50.883Z,97208.08
2023-03-10T00:11:18.794Z,97204.93
2023-03-10T00:13:47.273Z,97206.18
2023-03-10T00:16:19.401Z,97208.31
2023-03-10T00:18:48.226Z,97207.77
2023-03-10T00:21:19.544Z,97211.66
2023-03-10T00:23:47.414Z,97210.22
2023-03-10T00:26:16.913Z,97209.57
2023-03-10T00:28:45.310Z,97205.64
2023-03-10T00:31:17.478Z,97203.23
2023-03-10T00:33:46.426Z,97198.77
2023-03-10T00:36:17.864Z,97190.04
2023-03-10T00:38:47.269Z,97188.14
2023-03-10T00:41:26.784Z,97185.04
2023-03-10T00:43:54.763Z,97178.05
2023-03-10T00:46:23.156Z,97167.91
2023-03-10T00:48:51.208Z,97160.55
2023-03-10T00:51:20.762Z,97154.41
2023-03-10T00:53:49.706Z,97148.66
2023-03-10T00:56:25.703Z,97143.23
2023-03-10T00:58:56.610Z,97133.73
2023-03-10T01:01:32.701Z,97133.67
2023-03-10T01:04:05.524Z,97133.56
2023-03-10T01:06:34.059Z,97134.11
2023-03-10T01:09:03.079Z,97131.34
2023-03-10T01:11:31.373Z,97131.95
2023-03-10T01:14:02.026Z,97124.67
2023-03-10T01:16:30.344Z,97117.84
2023-03-10T01:18:58.869Z,97115.23
2023-03-10T01:21:30.876Z,97109.16
2023-03-10T01:24:00.014Z,97103.89
2023-03-10T01:26:28.405Z,97098.90
2023-03-10T01:28:56.441Z,97098.27
2023-03-10T01:31:24.418Z,97091.77
2023-03-10T01:33:52.314Z,97079.00
2023-03-10T01:36:26.524Z,97075.50
2023-03-10T01:38:56.121Z,97077.42
2023-03-10T01:41:24.632Z,97078.17
2023-03-10T01:43:56.963Z,97081.04
2023-03-10T01:46:39.774Z,97081.92
2023-03-10T01:49:34.862Z,97080.05
2023-03-10T01:52:11.788Z,97076.68
2023-03-10T01:54:46.537Z,97066.17
2023-03-10T01:57:16.949Z,97056.55
2023-03-10T01:59:45.997Z,97056.95
2023-03-10T02:02:14.199Z,97053.37
2023-03-10T02:04:51.247Z,97051.82
2023-03-10T02:07:29.030Z,97046.15
2023-03-10T02:09:57.344Z,97041.50
2023-03-10T02:12:25.891Z,97044.27
2023-03-10T02:14:54.121Z,97038.44
2023-03-10T02:17:26.211Z,97037.61
2023-03-10T02:20:22.149Z,97031.70
2023-03-10T02:22:50.458Z,97027.33
2023-03-10T02:25:45.900Z,97014.70
2023-03-10T02:28:14.458Z,97011.27
2023-03-10T02:30:48.740Z,97007.45
2023-03-10T02:33:29.168Z,97010.05
2023-03-10T02:36:14.034Z,97004.86
2023-03-10T02:38:42.180Z,96998.56
2023-03-10T02:41:32.331Z,96996.89
2023-03-10T02:44:04.565Z,96995.16
2023-03-10T02:46:32.634Z,96995.00
2023-03-10T02:49:02.842Z,96997.95
2023-03-10T02:51:43.990Z,96997.27
2023-03-10T02:54:14.859Z,96996.71
2023-03-10T02:56:43.172Z,96998.30
2023-03-10T02:59:12.260Z,96999.38
2023-03-10T03:01:44.265Z,97000.45
2023-03-10T03:04:12.365Z,96995.96
2023-03-10T03:06:41.157Z,96986.05
2023-03-10T03:09:09.368Z,96975.89
2023-03-10T03:11:37.742Z,96971.35
2023-03-10T03:14:07.919Z,96970.59
2023-03-10T03:16:36.203Z,96966.70
2023-03-10T03:19:06.087Z,96955.98
2023-03-10T03:21:34.126Z,96957.66
2023-03-10T03:24:02.199Z,96959.90
2023-03-10T03:26:30.845Z,96951.13
2023-03-10T03:29:03.656Z,96951.09
2023-03-10T03:31:33.772Z,96953.47
2023-03-10T03:34:15.716Z,96948.27
2023-03-10T03:36:44.496Z,96947.81
2023-03-10T03:39:17.425Z,96947.65
2023-03-10T03:41:46.577Z,96943.70
2023-03-10T03:44:14.738Z,96939.96
2023-03-10T03:46:42.589Z,96937.39
2023-03-10T03:49:10.668Z,96938.08
2023-03-10T03:51:38.653Z,96940.14
2023-03-10T03:54:07.098Z,96930.84
2023-03-10T03:56:36.448Z,96926.16
2023-03-10T03:59:04.439Z,96920.77
2023-03-10T04:01:33.044Z,96919.55
2023-03-10T04:04:01.342Z,96921.70
2023-03-10T04:06:29.953Z,96913.52
2023-03-10T04:08:58.110Z,96911.84
2023-03-10T04:11:26.763Z,96910.02
2023-03-10T04:13:54.657Z,96908.05
2023-03-10T04:16:23.115Z,96906.93
2023-03-10T04:18:51.825Z,96906.20
2023-03-10T04:21:20.002Z,96896.48
2023-03-10T04:23:49.247Z,96891.98
2023-03-10T04:26:19.914Z,96890.09
2023-03-10T04:28:47.949Z,96881.69
2023-03-10T04:31:19.138Z,96878.09
2023-03-10T04:33:48.212Z,96875.81
2023-03-10T04:36:16.799Z,96875.91
2023-03-10T04:38:45.853Z,96878.30
2023-03-10T04:41:14.212Z,96878.50
2023-03-10T04:43:47.481Z,96882.56
2023-03-10T04:46:16.366Z,96881.31
2023-03-10T04:48:45.043Z,96878.98
2023-03-10T04:51:13.544Z,96874.17
2023-03-10T04:53:50.550Z,96876.39
2023-03-10T04:56:19.520Z,96880.71
2023-03-10T04:58:48.064Z,96880.80
2023-03-10T05:01:16.691Z,96870.95
2023-03-10T05:03:50.801Z,96875.86
2023-03-10T05:06:21.847Z,96878.05
2023-03-10T05:08:57.327Z,96875.39
2023-03-10T05:11:25.545Z,96867.31
2023-03-10T05:13:53.459Z,96855.95
2023-03-10T05:16:22.510Z,96846.04
2023-03-10T05:18:50.894Z,96846.20
2023-03-10T05:21:22.401Z,96845.57
2023-03-10T05:23:50.497Z,96845.09
2023-03-10T05:26:19.322Z,96837.27
2023-03-10T05:28:47.789Z,96831.70
2023-03-10T05:31:17.985Z,96827.70
2023-03-10T05:33:47.470Z,96821.84
2023-03-10T05:36:15.637Z,96813.13
2023-03-10T05:38:45.292Z,96806.48
2023-03-10T05:41:16.092Z,96795.35
2023-03-10T05:43:45.257Z,96778.29
2023-03-10T05:46:14.142Z,96767.61
2023-03-10T05:48:49.490Z,96765.28
2023-03-10T05:51:17.744Z,96765.48
2023-03-10T05:53:46.780Z,96769.68
2023-03-10T05:56:19.515Z,96768.27
2023-03-10T05:58:51.096Z,96770.90
2023-03-10T06:01:20.420Z,96772.10
2023-03-10T06:03:48.729Z,96773.99
2023-03-10T06:06:16.771Z,96768.39
2023-03-10T06:08:44.752Z,96764.35
2023-03-10T06:11:12.665Z,96766.56
2023-03-10T06:13:40.811Z,96771.20
2023-03-10T06:16:08.814Z,96771.81
2023-03-10T06:18:36.898Z,96773.88
2023-03-10T06:21:10.102Z,96773.46
2023-03-10T06:23:38.315Z,96772.99
2023-03-10T06:26:09.681Z,96770.94
2023-03-10T06:28:39.347Z,96762.59
2023-03-10T06:31:19.805Z,96765.16
2023-03-10T06:33:48.322Z,96767.63
2023-03-10T06:36:18.198Z,96769.95
2023-03-10T06:38:46.777Z,96768.09
2023-03-10T06:41:16.479Z,96761.52
2023-03-10T06:43:44.763Z,96761.97
2023-03-10T06:46:13.708Z,96756.88
2023-03-10T06:48:43.223Z,96751.92
2023-03-10T06:51:14.890Z,96748.30
2023-03-10T06:53:42.886Z,96749.89
2023-03-10T06:56:15.766Z,96743.98
2023-03-10T06:58:44.953Z,96736.59
2023-03-10T07:01:31.303Z,96734.88
2023-03-10T07:04:01.185Z,96731.08
2023-03-10T07:06:29.085Z,96737.25
2023-03-10T07:08:57.131Z,96736.55
2023-03-10T07:11:26.348Z,96736.72
2023-03-10T07:13:54.766Z,96741.42
2023-03-10T07:16:22.997Z,96743.09
2023-03-10T07:18:50.994Z,96742.70
2023-03-10T07:21:20.441Z,96737.79
2023-03-10T07:23:48.803Z,96735.09
2023-03-10T07:26:18.861Z,96735.33
2023-03-10T07:28:47.346Z,96729.61
2023-03-10T07:31:16.278Z,96730.23
2023-03-10T07:33:44.359Z,96728.57
2023-03-10T07:36:15.811Z,96741.27
2023-03-10T07:38:43.825Z,96748.64
2023-03-10T07:41:15.657Z,96745.68
2023-03-10T07:43:43.668Z,96738.77
2023-03-10T07:46:14.870Z,96737.75
2023-03-10T07:48:43.924Z,96736.17
2023-03-10T07:51:12.607Z,96734.80
2023-03-10T07:53:40.499Z,96732.64
2023-03-10T07:56:10.801Z,96735.00
2023-03-10T07:58:39.582Z,96729.20
2023-03-10T08:01:09.139Z,96735.95
2023-03-10T08:03:38.147Z,96731.23
2023-03-10T08:06:06.367Z,96733.54
2023-03-10T08:08:34.365Z,96736.96
2023-03-10T08:11:09.743Z,96728.52
2023-03-10T08:13:40.315Z,96719.71
2023-03-10T08:16:08.898Z,96716.22
2023-03-10T08:18:36.819Z,96720.01
2023-03-10T08:21:06.626Z,96720.00
2023-03-10T08:23:35.566Z,96716.41
2023-03-10T08:26:10.965Z,96710.79
2023-03-10T08:28:39.216Z,96713.14
2023-03-10T08:31:15.573Z,96708.48
2023-03-10T08:33:44.746Z,96705.73
2023-03-10T08:36:16.090Z,96702.02
2023-03-10T08:38:44.983Z,96693.59
2023-03-10T08:41:19.694Z,96683.48
2023-03-10T08:43:49.522Z,96686.58
2023-03-10T08:46:19.848Z,96694.64
2023-03-10T08:48:48.219Z,96692.73
2023-03-10T08:51:16.947Z,96688.73
2023-03-10T08:53:47.132Z,96692.35
2023-03-10T08:56:16.959Z,96691.68
2023-03-10T08:58:45.521Z,96693.20
2023-03-10T09:01:15.734Z,96703.00
2023-03-10T09:03:45.202Z,96700.20
2023-03-10T09:06:14.076Z,96694.34
2023-03-10T09:08:42.158Z,96695.84
2023-03-10T09:11:15.296Z,96700.50
2023-03-10T09:13:43.525Z,96690.80
2023-03-10T09:16:13.586Z,96698.26
2023-03-10T09:18:41.793Z,96696.82
2023-03-10T09:21:12.289Z,96699.69
2023-03-10T09:23:42.810Z,96695.49
2023-03-10T09:26:10.803Z,96699.04
2023-03-10T09:28:39.128Z,96696.13
2023-03-10T09:31:09.078Z,96693.42
2023-03-10T09:33:37.076Z,96689.69
2023-03-10T09:36:06.726Z,96703.22
2023-03-10T09:38:36.309Z,96704.82
2023-03-10T09:41:21.993Z,96701.05
2023-03-10T09:43:59.322Z,96704.09
2023-03-10T09:46:38.883Z,96704.91
2023-03-10T09:49:18.402Z,96705.81
2023-03-10T09:51:49.797Z,96702.27
2023-03-10T09:55:06.587Z,96696.77
2023-03-10T09:57:35.617Z,96695.67
2023-03-10T10:00:09.308Z,96699.42
2023-03-10T10:02:42.563Z,96704.44
2023-03-10T10:05:27.373Z,96707.33
2023-03-10T10:07:57.367Z,96708.71
2023-03-10T10:10:31.324Z,96712.45
2023-03-10T10:13:07.432Z,96711.77
2023-03-10T10:15:39.501Z,96707.51
2023-03-10T10:18:24.020Z,96706.25
2023-03-10T10:21:00.370Z,96707.57
2023-03-10T10:23:45.387Z,96711.11
2023-03-10T10:26:26.518Z,96711.16
2023-03-10T10:28:57.566Z,96705.07
2023-03-10T10:31:28.799Z,96704.12
2023-03-10T10:34:19.617Z,96711.95
2023-03-10T10:36:55.190Z,96706.10
2023-03-10T10:39:42.974Z,96704.33
2023-03-10T10:42:26.097Z,96708.99
2023-03-10T10:44:56.830Z,96710.30
2023-03-10T10:47:33.435Z,96713.25
2023-03-10T10:50:18.931Z,96710.84
2023-03-10T10:52:49.912Z,96705.73
2023-03-10T10:55:35.697Z,96704.09
2023-03-10T10:58:06.990Z,96706.21
2023-03-10T11:00:38.317Z,96701.34
2023-03-10T11:03:43.524Z,96698.17
2023-03-10T11:06:29.273Z,96692.36
2023-03-10T11:09:10.910Z,96688.63
2023-03-10T11:11:45.685Z,96688.98
2023-03-10T11:14:16.591Z,96686.86
2023-03-10T11:17:02.030Z,96685.23
2023-03-10T11:19:45.871Z,96688.78
2023-03-10T11:22:27.663Z,96689.77
2023-03-10T11:25:05.171Z,96685.94
2023-03-10T11:27:54.211Z,96675.11
2023-03-10T11:30:38.294Z,96665.17
2023-03-10T11:33:21.497Z,96652.73
2023-03-10T11:35:56.155Z,96649.50
2023-03-10T11:38:39.338Z,96642.79
2023-03-10T11:41:21.515Z,96644.61
2023-03-10T11:44:05.241Z,96648.08
2023-03-10T11:46:56.649Z,96646.73
2023-03-10T11:49:31.505Z,96643.04
2023-03-10T11:52:10.469Z,96642.95
2023-03-10T11:54:44.098Z,96642.43
2023-03-10T11:57:21.045Z,96636.61
2023-03-10T11:59:59.718Z,96640.40
2023-03-10T12:02:36.775Z,96636.29
2023-03-10T12:05:18.662Z,96633.20
2023-03-10T12:07:51.335Z,96638.33
2023-03-10T12:10:25.619Z,96630.02
2023-03-10T12:12:54.364Z,96630.43
2023-03-10T12:15:27.758Z,96629.09
2023-03-10T12:17:57.199Z,96630.80
2023-03-10T12:20:33.512Z,96628.08
2023-03-10T12:23:27.100Z,96622.65
2023-03-10T12:25:55.106Z,96625.93
2023-03-10T12:28:26.338Z,96629.52
2023-03-10T12:31:38.851Z,96633.17
2023-03-10T12:34:13.625Z,96635.89
2023-03-10T12:36:45.424Z,96641.49
2023-03-10T12:39:28.504Z,96640.45
2023-03-10T12:42:01.762Z,96633.48
2023-03-10T12:44:35.072Z,96631.59
2023-03-10T12:47:08.977Z,96634.60
2023-03-10T12:49:49.990Z,96632.36
2023-03-10T12:52:31.213Z,96638.89
2023-03-10T12:55:05.253Z,96641.60
2023-03-10T12:57:54.647Z,96639.11
2023-03-10T13:00:31.825Z,96635.71
2023-03-10T13:03:09.322Z,96627.83
2023-03-10T13:05:43.114Z,96622.88
2023-03-10T13:08:40.050Z,96613.17
2023-03-10T13:11:36.143Z,96604.98
2023-03-10T13:14:04.064Z,96608.10
2023-03-10T13:16:33.458Z,96613.23
2023-03-10T13:19:01.459Z,96616.34
2023-03-10T13:21:36.031Z,96616.48
2023-03-10T13:24:19.214Z,96615.33
2023-03-10T13:26:47.130Z,96618.48
2023-03-10T13:29:20.154Z,96619.21
2023-03-10T13:31:55.978Z,96619.61
2023-03-10T13:34:28.122Z,96622.35
2023-03-10T13:37:07.437Z,96621.71
2023-03-10T13:39:35.485Z,96622.86
2023-03-10T13:42:18.455Z,96628.69
2023-03-10T13:44:47.570Z,96627.32
2023-03-10T13:47:26.901Z,96624.91
2023-03-10T13:49:58.469Z,96623.40
2023-03-10T13:52:29.335Z,96621.38
2023-03-10T13:55:38.586Z,96622.63
2023-03-10T13:58:07.445Z,96622.61
2023-03-10T14:00:36.771Z,96624.74
2023-03-10T14:03:08.050Z,96620.02
2023-03-10T14:05:37.464Z,96618.31
2023-03-10T14:08:06.383Z,96622.64
2023-03-10T14:10:34.298Z,96613.39
2023-03-10T14:13:02.223Z,96610.01
2023-03-10T14:15:38.805Z,96607.17
2023-03-10T14:18:06.778Z,96606.05
2023-03-10T14:20:39.846Z,96602.94
2023-03-10T14:23:19.861Z,96607.52
2023-03-10T14:25:51.821Z,96608.67
2023-03-10T14:28:31.647Z,96607.11
2023-03-10T14:31:02.511Z,96606.98
2023-03-10T14:33:30.539Z,96599.05
2023-03-10T14:35:58.459Z,96593.05
2023-03-10T14:38:26.324Z,96591.02
2023-03-10T14:40:55.478Z,96589.58
2023-03-10T14:43:27.434Z,96592.12
2023-03-10T14:45:58.513Z,96592.72
2023-03-10T14:48:29.713Z,96597.86
2023-03-10T14:50:57.626Z,96596.08
2023-03-10T14:53:26.713Z,96593.04
2023-03-10T14:55:57.141Z,96590.20
2023-03-10T14:58:31.811Z,96587.27
2023-03-10T15:01:00.240Z,96581.30
2023-03-10T15:03:28.308Z,96584.64
2023-03-10T15:05:56.213Z,96581.00
2023-03-10T15:08:24.720Z,96573.55
2023-03-10T15:10:53.443Z,96569.07
2023-03-10T15:13:24.992Z,96564.19
2023-03-10T15:15:53.317Z,96559.48
2023-03-10T15:18:23.022Z,96555.52
2023-03-10T15:20:51.153Z,96551.27
2023-03-10T15:23:20.138Z,96552.77
2023-03-10T15:25:48.455Z,96555.66
2023-03-10T15:28:16.809Z,96555.77
2023-03-10T15:30:44.916Z,96553.82
2023-03-10T15:33:13.166Z,96552.39
2023-03-10T15:35:42.194Z,96554.77
2023-03-10T15:38:13.479Z,96555.77
2023-03-10T15:40:42.412Z,96554.51
2023-03-10T15:43:10.416Z,96551.98
2023-03-10T15:45:41.072Z,96549.01
2023-03-10T15:48:10.381Z,96545.75
2023-03-10T15:50:47.016Z,96541.91
2023-03-10T15:53:15.332Z,96542.37
2023-03-10T15:55:43.342Z,96541.35
2023-03-10T15:58:12.255Z,96538.02
2023-03-10T16:00:42.327Z,96536.30
2023-03-10T16:03:11.452Z,96540.37
2023-03-10T16:05:47.872Z,96535.98
2023-03-10T16:08:18.910Z,96533.69
2023-03-10T16:10:54.596Z,96538.82
2023-03-10T16:13:23.712Z,96540.59
2023-03-10T16:15:52.778Z,96538.53
2023-03-10T16:18:20.927Z,96538.33
2023-03-10T16:20:58.597Z,96540.09
2023-03-10T16:23:28.829Z,96538.06
2023-03-10T16:26:23.583Z,96537.30
2023-03-10T16:28:53.917Z,96531.98
2023-03-10T16:31:23.839Z,96536.56
2023-03-10T16:33:52.133Z,96532.38
2023-03-10T16:36:22.603Z,96537.23
2023-03-10T16:38:53.656Z,96533.95
2023-03-10T16:41:23.392Z,96526.89
2023-03-10T16:43:51.777Z,96532.25
2023-03-10T16:46:25.575Z,96536.02
2023-03-10T16:48:55.137Z,96536.60
2023-03-10T16:51:25.129Z,96545.00
2023-03-10T16:53:55.957Z,96548.77
2023-03-10T16:56:25.314Z,96558.45
2023-03-10T16:58:54.030Z,96550.21
2023-03-10T17:01:24.243Z,96543.96
2023-03-10T17:03:53.873Z,96541.73
2023-03-10T17:06:25.590Z,96530.46
2023-03-10T17:08:55.230Z,96521.58
2023-03-10T17:11:32.290Z,96524.96
2023-03-10T17:14:06.778Z,96523.95
2023-03-10T17:16:36.433Z,96521.40
2023-03-10T17:19:07.266Z,96511.42
2023-03-10T17:21:39.329Z,96514.30
2023-03-10T17:24:08.379Z,96519.28
2023-03-10T17:26:36.734Z,96520.55
2023-03-10T17:29:05.681Z,96518.60
2023-03-10T17:31:33.836Z,96526.98
2023-03-10T17:34:04.610Z,96539.59
2023-03-10T17:36:33.166Z,96542.06
2023-03-10T17:39:02.330Z,96539.38
2023-03-10T17:41:33.983Z,96536.35
2023-03-10T17:44:04.811Z,96534.52
2023-03-10T17:46:33.465Z,96534.05
2023-03-10T17:49:01.892Z,96544.48
2023-03-10T17:51:31.384Z,96539.23
2023-03-10T17:54:01.387Z,96542.45
2023-03-10T17:56:29.966Z,96541.17
2023-03-10T17:58:58.616Z,96542.80
2023-03-10T18:01:29.392Z,96538.98
2023-03-10T18:03:59.472Z,96536.30
2023-03-10T18:06:30.856Z,96531.87
2023-03-10T18:09:01.530Z,96531.27
2023-03-10T18:11:29.673Z,96522.71
2023-03-10T18:13:58.154Z,96520.38
2023-03-10T18:16:29.322Z,96518.97
2023-03-10T18:18:58.969Z,96518.14
2023-03-10T18:21:27.620Z,96517.39
2023-03-10T18:23:56.139Z,96522.94
2023-03-10T18:26:27.822Z,96521.81
2023-03-10T18:28:56.495Z,96518.52
2023-03-10T18:31:31.057Z,96523.23
2023-03-10T18:34:00.359Z,96523.75
2023-03-10T18:36:29.597Z,96525.01
2023-03-10T18:38:58.098Z,96527.10
2023-03-10T18:41:29.470Z,96525.80
2023-03-10T18:43:57.552Z,96521.20
2023-03-10T18:46:26.339Z,96520.92
2023-03-10T18:48:56.164Z,96518.67
2023-03-10T18:51:27.647Z,96512.98
2023-03-10T18:53:56.296Z,96512.36
2023-03-10T18:56:26.164Z,96502.82
2023-03-10T18:58:54.656Z,96500.45
2023-03-10T19:01:22.844Z,96501.46
2023-03-10T19:03:51.152Z,96503.29
2023-03-10T19:06:19.597Z,96505.30
2023-03-10T19:08:47.845Z,96502.62
2023-03-10T19:11:16.115Z,96498.77
2023-03-10T19:13:45.237Z,96493.63
2023-03-10T19:16:13.598Z,96488.84
2023-03-10T19:18:41.814Z,96490.97
2023-03-10T19:21:10.698Z,96491.05
2023-03-10T19:23:39.203Z,96489.11
2023-03-10T19:26:09.146Z,96488.28
2023-03-10T19:28:38.005Z,96481.67
2023-03-10T19:31:14.589Z,96475.66
2023-03-10T19:33:43.117Z,96469.88
2023-03-10T19:36:13.918Z,96463.66
2023-03-10T19:38:43.660Z,96463.07
2023-03-10T19:41:16.361Z,96462.71
2023-03-10T19:43:46.384Z,96455.98
2023-03-10T19:46:15.930Z,96458.10
2023-03-10T19:48:44.821Z,96464.09
2023-03-10T19:51:22.003Z,96473.52
2023-03-10T19:53:55.069Z,96472.33
2023-03-10T19:56:26.386Z,96463.16
2023-03-10T19:58:55.865Z,96462.58
2023-03-10T20:01:26.265Z,96461.64
2023-03-10T20:03:57.823Z,96458.57
2023-03-10T20:06:26.299Z,96461.89
2023-03-10T20:08:54.693Z,96464.98
2023-03-10T20:11:23.391Z,96460.70
2023-03-10T20:13:53.773Z,96455.47
2023-03-10T20:16:24.060Z,96457.55
2023-03-10T20:18:52.351Z,96459.33
2023-03-10T20:21:20.229Z,96458.23
2023-03-10T20:23:48.707Z,96453.95
2023-03-10T20:26:18.391Z,96452.38
2023-03-10T20:28:48.385Z,96449.23
2023-03-10T20:31:18.545Z,96448.30
2023-03-10T20:33:46.558Z,96442.09
2023-03-10T20:36:15.879Z,96440.83
2023-03-10T20:38:45.364Z,96447.84
2023-03-10T20:41:16.085Z,96445.39
2023-03-10T20:43:44.627Z,96442.88
2023-03-10T20:46:12.855Z,96444.12
2023-03-10T20:48:41.059Z,96445.32
2023-03-10T20:51:09.023Z,96442.55
2023-03-10T20:53:37.376Z,96439.71
2023-03-10T20:56:10.125Z,96437.71
2023-03-10T20:58:38.189Z,96434.08
2023-03-10T21:01:06.383Z,96435.58
2023-03-10T21:03:34.308Z,96438.88
2023-03-10T21:06:02.260Z,96441.02
2023-03-10T21:08:30.138Z,96441.50
2023-03-10T21:10:58.758Z,96437.70
2023-03-10T21:13:26.657Z,96438.64
2023-03-10T21:15:54.552Z,96436.39
2023-03-10T21:18:22.763Z,96431.55
2023-03-10T21:20:50.845Z,96428.51
2023-03-10T21:23:18.780Z,96433.33
2023-03-10T21:25:46.660Z,96431.00
2023-03-10T21:28:14.805Z,96427.39
2023-03-10T21:30:42.924Z,96424.81
2023-03-10T21:33:10.857Z,96420.67
2023-03-10T21:35:40.557Z,96422.02
2023-03-10T21:38:10.203Z,96425.60
2023-03-10T21:40:38.156Z,96423.76
2023-03-10T21:43:06.058Z,96421.44
2023-03-10T21:45:37.344Z,96419.05
2023-03-10T21:48:05.815Z,96419.02
2023-03-10T21:50:33.984Z,96414.90
2023-03-10T21:53:02.031Z,96414.93
2023-03-10T21:55:31.857Z,96414.98
2023-03-10T21:58:00.274Z,96413.14
2023-03-10T22:00:28.192Z,96405.23
2023-03-10T22:02:56.073Z,96397.14
2023-03-10T22:05:24.319Z,96394.80
2023-03-10T22:07:53.377Z,96394.36
2023-03-10T22:10:21.282Z,96391.36
2023-03-10T22:12:49.200Z,96392.34
2023-03-10T22:15:23.439Z,96393.54
2023-03-10T22:17:52.737Z,96393.02
2023-03-10T22:20:25.972Z,96390.27
2023-03-10T22:22:54.015Z,96386.80
2023-03-10T22:25:21.901Z,96385.88
2023-03-10T22:27:52.533Z,96381.61
2023-03-10T22:30:21.369Z,96382.85
2023-03-10T22:32:49.627Z,96379.03
2023-03-10T22:35:18.389Z,96377.42
2023-03-10T22:37:46.313Z,96377.39
2023-03-10T22:40:17.298Z,96370.38
2023-03-10T22:42:46.240Z,96368.45
2023-03-10T22:45:22.356Z,96370.04
2023-03-10T22:47:53.554Z,96373.03
2023-03-10T22:50:27.598Z,96371.27
2023-03-10T22:52:55.577Z,96365.91
2023-03-10T22:55:25.091Z,96364.92
2023-03-10T22:57:53.694Z,96366.71
2023-03-10T23:00:22.686Z,96369.27
2023-03-10T23:02:52.182Z,96369.73
2023-03-10T23:05:21.360Z,96370.63
2023-03-10T23:07:49.797Z,96366.08
2023-03-10T23:10:29.470Z,96363.95
2023-03-10T23:13:02.813Z,96363.38
2023-03-10T23:15:33.679Z,96359.69
2023-03-10T23:18:01.924Z,96361.10
2023-03-10T23:20:33.544Z,96363.98
2023-03-10T23:23:03.849Z,96365.73
2023-03-10T23:25:35.223Z,96365.11
2023-03-10T23:28:04.520Z,96359.24
2023-03-10T23:30:33.812Z,96361.21
2023-03-10T23:33:02.146Z,96355.44
2023-03-10T23:35:33.164Z,96358.08
2023-03-10T23:38:03.045Z,96361.16
2023-03-10T23:40:32.562Z,96359.82
2023-03-10T23:43:02.480Z,96362.07
2023-03-10T23:45:32.204Z,96362.79
2023-03-10T23:48:02.365Z,96367.30
2023-03-10T23:50:33.717Z,96366.41
2023-03-10T23:53:02.876Z,96363.92
2023-03-10T23:55:37.464Z,96367.05
2023-03-10T23:58:06.459Z,96366.69
